sensor_id;sensor_type;location;lat;lon;timestamp;pressure;altitude;pressure_sealevel;temperature
76541;BMP280;65385;55.772;37.658;2024-01-25T00:00:54;98548.16;;;1.43
76541;BMP280;65385;55.772;37.658;2024-01-25T00:01:55;98541.22;;;1.44
76541;BMP280;65385;55.772;37.658;2024-01-25T00:02:55;98546.16;;;1.45
76541;BMP280;65385;55.772;37.658;2024-01-25T00:03:56;98541.00;;;1.45
76541;BMP280;65385;55.772;37.658;2024-01-25T00:04:57;98544.34;;;1.46
76541;BMP280;65385;55.772;37.658;2024-01-25T00:05:57;98537.63;;;1.45
76541;BMP280;65385;55.772;37.658;2024-01-25T00:06:58;98528.91;;;1.46
76541;BMP280;65385;55.772;37.658;2024-01-25T00:07:58;98530.69;;;1.45
76541;BMP280;65385;55.772;37.658;2024-01-25T00:08:59;98527.53;;;1.43
76541;BMP280;65385;55.772;37.658;2024-01-25T00:10:01;98538.63;;;1.44
76541;BMP280;65385;55.772;37.658;2024-01-25T00:11:02;98530.91;;;1.44
76541;BMP280;65385;55.772;37.658;2024-01-25T00:12:03;98525.75;;;1.44
76541;BMP280;65385;55.772;37.658;2024-01-25T00:13:04;98525.75;;;1.44
76541;BMP280;65385;55.772;37.658;2024-01-25T00:14:05;98533.47;;;1.44
76541;BMP280;65385;55.772;37.658;2024-01-25T00:15:05;98529.13;;;1.44
76541;BMP280;65385;55.772;37.658;2024-01-25T00:16:06;98523.41;;;1.42
76541;BMP280;65385;55.772;37.658;2024-01-25T00:17:07;98521.81;;;1.41
76541;BMP280;65385;55.772;37.658;2024-01-25T00:18:07;98527.75;;;1.42
76541;BMP280;65385;55.772;37.658;2024-01-25T00:19:08;98510.75;;;1.41
76541;BMP280;65385;55.772;37.658;2024-01-25T00:20:09;98520.50;;;1.39
76541;BMP280;65385;55.772;37.658;2024-01-25T00:21:10;98507.38;;;1.40
76541;BMP280;65385;55.772;37.658;2024-01-25T00:22:11;98508.38;;;1.39
76541;BMP280;65385;55.772;37.658;2024-01-25T00:23:12;98502.47;;;1.39
76541;BMP280;65385;55.772;37.658;2024-01-25T00:24:13;98510.19;;;1.39
76541;BMP280;65385;55.772;37.658;2024-01-25T00:25:13;98510.19;;;1.39
76541;BMP280;65385;55.772;37.658;2024-01-25T00:26:14;98503.47;;;1.38
76541;BMP280;65385;55.772;37.658;2024-01-25T00:27:14;98505.28;;;1.37
76541;BMP280;65385;55.772;37.658;2024-01-25T00:28:15;98504.69;;;1.35
76541;BMP280;65385;55.772;37.658;2024-01-25T00:29:16;98499.56;;;1.35
76541;BMP280;65385;55.772;37.658;2024-01-25T00:30:16;98507.06;;;1.37
76541;BMP280;65385;55.772;37.658;2024-01-25T00:31:17;98510.63;;;1.36
76541;BMP280;65385;55.772;37.658;2024-01-25T00:32:18;98509.84;;;1.35
76541;BMP280;65385;55.772;37.658;2024-01-25T00:33:18;98506.50;;;1.35
76541;BMP280;65385;55.772;37.658;2024-01-25T00:34:19;98495.19;;;1.36
76541;BMP280;65385;55.772;37.658;2024-01-25T00:35:20;98502.13;;;1.35
76541;BMP280;65385;55.772;37.658;2024-01-25T00:36:21;98497.75;;;1.36
76541;BMP280;65385;55.772;37.658;2024-01-25T00:37:22;98499.75;;;1.34
76541;BMP280;65385;55.772;37.658;2024-01-25T00:38:23;98495.41;;;1.34
76541;BMP280;65385;55.772;37.658;2024-01-25T00:39:24;98499.75;;;1.34
76541;BMP280;65385;55.772;37.658;2024-01-25T00:40:25;98497.19;;;1.34
76541;BMP280;65385;55.772;37.658;2024-01-25T00:41:25;98500.34;;;1.36
76541;BMP280;65385;55.772;37.658;2024-01-25T00:42:27;98497.19;;;1.34
76541;BMP280;65385;55.772;37.658;2024-01-25T00:43:29;98488.94;;;1.32
76541;BMP280;65385;55.772;37.658;2024-01-25T00:44:30;98496.66;;;1.32
76541;BMP280;65385;55.772;37.658;2024-01-25T00:45:31;98495.91;;;1.31
76541;BMP280;65385;55.772;37.658;2024-01-25T00:46:32;98498.47;;;1.31
76541;BMP280;65385;55.772;37.658;2024-01-25T00:47:32;98486.59;;;1.30
76541;BMP280;65385;55.772;37.658;2024-01-25T00:48:33;98495.31;;;1.29
76541;BMP280;65385;55.772;37.658;2024-01-25T00:49:35;98490.19;;;1.29
76541;BMP280;65385;55.772;37.658;2024-01-25T00:50:36;98487.03;;;1.27
76541;BMP280;65385;55.772;37.658;2024-01-25T00:51:37;98487.03;;;1.27
76541;BMP280;65385;55.772;37.658;2024-01-25T00:52:38;98490.41;;;1.28
76541;BMP280;65385;55.772;37.658;2024-01-25T00:53:38;98486.25;;;1.27
76541;BMP280;65385;55.772;37.658;2024-01-25T00:54:39;98482.09;;;1.26
76541;BMP280;65385;55.772;37.658;2024-01-25T00:55:40;98479.78;;;1.24
76541;BMP280;65385;55.772;37.658;2024-01-25T00:56:42;98481.56;;;1.24
76541;BMP280;65385;55.772;37.658;2024-01-25T00:57:43;98476.63;;;1.22
76541;BMP280;65385;55.772;37.658;2024-01-25T00:58:44;98477.63;;;1.21
76541;BMP280;65385;55.772;37.658;2024-01-25T00:59:45;98481.00;;;1.22
76541;BMP280;65385;55.772;37.658;2024-01-25T01:00:46;98477.63;;;1.21
76541;BMP280;65385;55.772;37.658;2024-01-25T01:01:47;98473.28;;;1.22
76541;BMP280;65385;55.772;37.658;2024-01-25T01:02:49;98467.56;;;1.19
76541;BMP280;65385;55.772;37.658;2024-01-25T01:03:50;98469.34;;;1.19
76541;BMP280;65385;55.772;37.658;2024-01-25T01:04:53;98469.13;;;1.21
76541;BMP280;65385;55.772;37.658;2024-01-25T01:05:54;98467.34;;;1.21
76541;BMP280;65385;55.772;37.658;2024-01-25T01:06:55;98465.75;;;1.20
76541;BMP280;65385;55.772;37.658;2024-01-25T01:07:56;98463.41;;;1.18
76541;BMP280;65385;55.772;37.658;2024-01-25T01:08:56;98459.25;;;1.17
76541;BMP280;65385;55.772;37.658;2024-01-25T01:09:57;98455.16;;;1.16
76541;BMP280;65385;55.772;37.658;2024-01-25T01:10:58;98458.72;;;1.15
76541;BMP280;65385;55.772;37.658;2024-01-25T01:11:58;98464.88;;;1.14
76541;BMP280;65385;55.772;37.658;2024-01-25T01:12:59;98450.44;;;1.13
76541;BMP280;65385;55.772;37.658;2024-01-25T01:13:59;98447.28;;;1.11
76541;BMP280;65385;55.772;37.658;2024-01-25T01:15:00;98450.88;;;1.10
76541;BMP280;65385;55.772;37.658;2024-01-25T01:16:01;98452.66;;;1.10
76541;BMP280;65385;55.772;37.658;2024-01-25T01:17:01;98452.91;;;1.08
76541;BMP280;65385;55.772;37.658;2024-01-25T01:18:02;98450.31;;;1.08
76541;BMP280;65385;55.772;37.658;2024-01-25T01:19:03;98444.59;;;1.06
76541;BMP280;65385;55.772;37.658;2024-01-25T01:20:07;98451.53;;;1.06
76541;BMP280;65385;55.772;37.658;2024-01-25T01:21:08;98450.19;;;1.03
76541;BMP280;65385;55.772;37.658;2024-01-25T01:22:09;98449.41;;;1.03
76541;BMP280;65385;55.772;37.658;2024-01-25T01:23:10;98448.84;;;1.01
76541;BMP280;65385;55.772;37.658;2024-01-25T01:24:10;98441.13;;;1.01
76541;BMP280;65385;55.772;37.658;2024-01-25T01:25:11;98439.56;;;1.00
76541;BMP280;65385;55.772;37.658;2024-01-25T01:26:12;98438.00;;;0.99
76541;BMP280;65385;55.772;37.658;2024-01-25T01:27:12;98440.56;;;0.99
76541;BMP280;65385;55.772;37.658;2024-01-25T01:28:13;98436.41;;;0.98
76541;BMP280;65385;55.772;37.658;2024-01-25T01:29:14;98436.41;;;0.98
76541;BMP280;65385;55.772;37.658;2024-01-25T01:30:14;98432.28;;;0.97
76541;BMP280;65385;55.772;37.658;2024-01-25T01:31:15;98434.06;;;0.96
76541;BMP280;65385;55.772;37.658;2024-01-25T01:32:15;98434.06;;;0.96
76541;BMP280;65385;55.772;37.658;2024-01-25T01:33:16;98425.34;;;0.97
76541;BMP280;65385;55.772;37.658;2024-01-25T01:34:17;98428.91;;;0.96
76541;BMP280;65385;55.772;37.658;2024-01-25T01:35:18;98422.19;;;0.95
76541;BMP280;65385;55.772;37.658;2024-01-25T01:36:18;98420.66;;;0.94
76541;BMP280;65385;55.772;37.658;2024-01-25T01:37:19;98427.34;;;0.95
76541;BMP280;65385;55.772;37.658;2024-01-25T01:38:19;98425.03;;;0.94
76541;BMP280;65385;55.772;37.658;2024-01-25T01:39:20;98427.81;;;0.92
76541;BMP280;65385;55.772;37.658;2024-01-25T01:40:21;98421.66;;;0.93
76541;BMP280;65385;55.772;37.658;2024-01-25T01:41:21;98426.59;;;0.95
76541;BMP280;65385;55.772;37.658;2024-01-25T01:42:22;98424.44;;;0.92
76541;BMP280;65385;55.772;37.658;2024-01-25T01:43:23;98425.03;;;0.94
76541;BMP280;65385;55.772;37.658;2024-01-25T01:44:23;98420.66;;;0.94
76541;BMP280;65385;55.772;37.658;2024-01-25T01:45:24;98429.91;;;0.95
76541;BMP280;65385;55.772;37.658;2024-01-25T01:46:33;98423.78;;;0.96
76541;BMP280;65385;55.772;37.658;2024-01-25T01:47:39;98425.81;;;0.94
76541;BMP280;65385;55.772;37.658;2024-01-25T01:48:40;98426.59;;;0.95
76541;BMP280;65385;55.772;37.658;2024-01-25T01:49:41;98424.56;;;0.97
76541;BMP280;65385;55.772;37.658;2024-01-25T01:50:43;98419.63;;;0.95
76541;BMP280;65385;55.772;37.658;2024-01-25T01:51:44;98420.19;;;0.97
76541;BMP280;65385;55.772;37.658;2024-01-25T01:52:46;98417.63;;;0.97
76541;BMP280;65385;55.772;37.658;2024-01-25T01:53:47;98425.34;;;0.97
76541;BMP280;65385;55.772;37.658;2024-01-25T01:54:48;98426.91;;;0.98
76541;BMP280;65385;55.772;37.658;2024-01-25T01:55:49;98417.41;;;0.99
76541;BMP280;65385;55.772;37.658;2024-01-25T01:56:50;98423.13;;;1.01
76541;BMP280;65385;55.772;37.658;2024-01-25T01:57:51;98422.34;;;1.00
76541;BMP280;65385;55.772;37.658;2024-01-25T01:58:52;98420.78;;;0.99
76541;BMP280;65385;55.772;37.658;2024-01-25T01:59:54;98418.75;;;1.01
76541;BMP280;65385;55.772;37.658;2024-01-25T02:00:55;98417.72;;;1.02
76541;BMP280;65385;55.772;37.658;2024-01-25T02:01:56;98407.22;;;1.04
76541;BMP280;65385;55.772;37.658;2024-01-25T02:02:56;98415.72;;;1.04
76541;BMP280;65385;55.772;37.658;2024-01-25T02:03:58;98421.66;;;1.05
76541;BMP280;65385;55.772;37.658;2024-01-25T02:04:58;98411.94;;;1.07
76541;BMP280;65385;55.772;37.658;2024-01-25T02:06:00;98409.59;;;1.05
76541;BMP280;65385;55.772;37.658;2024-01-25T02:07:02;98409.59;;;1.05
76541;BMP280;65385;55.772;37.658;2024-01-25T02:08:04;98416.50;;;1.05
76541;BMP280;65385;55.772;37.658;2024-01-25T02:09:06;98413.94;;;1.05
76541;BMP280;65385;55.772;37.658;2024-01-25T02:10:08;98408.59;;;1.06
76541;BMP280;65385;55.772;37.658;2024-01-25T02:11:12;98407.00;;;1.05
76541;BMP280;65385;55.772;37.658;2024-01-25T02:12:15;98408.59;;;1.06
76541;BMP280;65385;55.772;37.658;2024-01-25T02:13:17;98408.78;;;1.05
76541;BMP280;65385;55.772;37.658;2024-01-25T02:14:18;98407.78;;;1.06
76541;BMP280;65385;55.772;37.658;2024-01-25T02:15:18;98412.16;;;1.05
76541;BMP280;65385;55.772;37.658;2024-01-25T02:16:20;98411.94;;;1.07
76541;BMP280;65385;55.772;37.658;2024-01-25T02:17:20;98406.00;;;1.06
76541;BMP280;65385;55.772;37.658;2024-01-25T02:18:21;98420.88;;;1.04
76541;BMP280;65385;55.772;37.658;2024-01-25T02:19:22;98412.16;;;1.05
76541;BMP280;65385;55.772;37.658;2024-01-25T02:20:23;98402.88;;;1.04
76541;BMP280;65385;55.772;37.658;2024-01-25T02:21:23;98406.69;;;1.02
76541;BMP280;65385;55.772;37.658;2024-01-25T02:22:24;98410.00;;;1.02
76541;BMP280;65385;55.772;37.658;2024-01-25T02:23:25;98406.44;;;1.03
76541;BMP280;65385;55.772;37.658;2024-01-25T02:24:25;98415.16;;;1.02
76541;BMP280;65385;55.772;37.658;2024-01-25T02:25:26;98406.69;;;1.02
76541;BMP280;65385;55.772;37.658;2024-01-25T02:26:27;98416.19;;;1.01
76541;BMP280;65385;55.772;37.658;2024-01-25T02:27:27;98415.41;;;1.01
76541;BMP280;65385;55.772;37.658;2024-01-25T02:28:28;98422.34;;;1.00
76541;BMP280;65385;55.772;37.658;2024-01-25T02:29:28;98417.19;;;1.00
76541;BMP280;65385;55.772;37.658;2024-01-25T02:30:29;98424.91;;;1.00
76541;BMP280;65385;55.772;37.658;2024-01-25T02:31:29;98418.19;;;0.99
76541;BMP280;65385;55.772;37.658;2024-01-25T02:32:30;98413.06;;;0.99
76541;BMP280;65385;55.772;37.658;2024-01-25T02:33:31;98418.41;;;0.98
76541;BMP280;65385;55.772;37.658;2024-01-25T02:34:31;98416.06;;;0.96
76541;BMP280;65385;55.772;37.658;2024-01-25T02:35:32;98421.19;;;0.96
76541;BMP280;65385;55.772;37.658;2024-01-25T02:36:32;98418.63;;;0.96
76541;BMP280;65385;55.772;37.658;2024-01-25T02:37:33;98415.28;;;0.96
76541;BMP280;65385;55.772;37.658;2024-01-25T02:38:33;98406.75;;;0.95
76541;BMP280;65385;55.772;37.658;2024-01-25T02:39:34;98422.19;;;0.95
76541;BMP280;65385;55.772;37.658;2024-01-25T02:40:35;98415.50;;;0.94
76541;BMP280;65385;55.772;37.658;2024-01-25T02:41:35;98408.78;;;0.93
76541;BMP280;65385;55.772;37.658;2024-01-25T02:42:36;98408.22;;;0.91
76541;BMP280;65385;55.772;37.658;2024-01-25T02:43:36;98420.53;;;0.89
76541;BMP280;65385;55.772;37.658;2024-01-25T02:44:37;98406.09;;;0.88
76541;BMP280;65385;55.772;37.658;2024-01-25T02:45:37;98417.16;;;0.89
76541;BMP280;65385;55.772;37.658;2024-01-25T02:46:39;98413.25;;;0.86
76541;BMP280;65385;55.772;37.658;2024-01-25T02:47:39;98406.53;;;0.85
76541;BMP280;65385;55.772;37.658;2024-01-25T02:48:40;98417.84;;;0.84
76541;BMP280;65385;55.772;37.658;2024-01-25T02:49:40;98408.56;;;0.83
76541;BMP280;65385;55.772;37.658;2024-01-25T02:50:41;98409.56;;;0.82
76541;BMP280;65385;55.772;37.658;2024-01-25T02:51:42;98409.75;;;0.80
76541;BMP280;65385;55.772;37.658;2024-01-25T02:52:42;98402.28;;;0.79
76541;BMP280;65385;55.772;37.658;2024-01-25T02:53:43;98400.72;;;0.78
76541;BMP280;65385;55.772;37.658;2024-01-25T02:54:44;98398.38;;;0.76
76541;BMP280;65385;55.772;37.658;2024-01-25T02:55:44;98392.91;;;0.73
76541;BMP280;65385;55.772;37.658;2024-01-25T02:56:45;98400.38;;;0.74
76541;BMP280;65385;55.772;37.658;2024-01-25T02:57:46;98397.78;;;0.74
76541;BMP280;65385;55.772;37.658;2024-01-25T02:58:46;98387.75;;;0.73
76541;BMP280;65385;55.772;37.658;2024-01-25T02:59:47;98392.13;;;0.72
76541;BMP280;65385;55.772;37.658;2024-01-25T03:00:48;98386.97;;;0.72
76541;BMP280;65385;55.772;37.658;2024-01-25T03:01:48;98398.47;;;0.70
76541;BMP280;65385;55.772;37.658;2024-01-25T03:02:49;98393.31;;;0.70
76541;BMP280;65385;55.772;37.658;2024-01-25T03:03:49;98391.19;;;0.67
76541;BMP280;65385;55.772;37.658;2024-01-25T03:04:50;98391.75;;;0.69
76541;BMP280;65385;55.772;37.658;2024-01-25T03:05:51;98395.53;;;0.66
76541;BMP280;65385;55.772;37.658;2024-01-25T03:06:52;98392.19;;;0.66
76541;BMP280;65385;55.772;37.658;2024-01-25T03:07:53;98389.06;;;0.64
76541;BMP280;65385;55.772;37.658;2024-01-25T03:08:53;98385.94;;;0.62
76541;BMP280;65385;55.772;37.658;2024-01-25T03:09:54;98388.38;;;0.57
76541;BMP280;65385;55.772;37.658;2024-01-25T03:10:54;98382.25;;;0.58
76541;BMP280;65385;55.772;37.658;2024-01-25T03:11:56;98384.03;;;0.57
76541;BMP280;65385;55.772;37.658;2024-01-25T03:12:57;98378.91;;;0.57
76541;BMP280;65385;55.772;37.658;2024-01-25T03:13:58;98389.19;;;0.57
76541;BMP280;65385;55.772;37.658;2024-01-25T03:14:58;98379.69;;;0.58
76541;BMP280;65385;55.772;37.658;2024-01-25T03:15:59;98385.81;;;0.57
76541;BMP280;65385;55.772;37.658;2024-01-25T03:17:00;98382.69;;;0.55
76541;BMP280;65385;55.772;37.658;2024-01-25T03:18:00;98372.59;;;0.53
76541;BMP280;65385;55.772;37.658;2024-01-25T03:19:01;98366.69;;;0.53
76541;BMP280;65385;55.772;37.658;2024-01-25T03:20:02;98375.41;;;0.52
76541;BMP280;65385;55.772;37.658;2024-01-25T03:21:04;98371.81;;;0.53
76541;BMP280;65385;55.772;37.658;2024-01-25T03:22:05;98375.41;;;0.52
76541;BMP280;65385;55.772;37.658;2024-01-25T03:23:06;98373.59;;;0.52
76541;BMP280;65385;55.772;37.658;2024-01-25T03:24:06;98371.03;;;0.52
76541;BMP280;65385;55.772;37.658;2024-01-25T03:25:07;98362.53;;;0.52
76541;BMP280;65385;55.772;37.658;2024-01-25T03:26:09;98366.13;;;0.51
76541;BMP280;65385;55.772;37.658;2024-01-25T03:27:09;98369.72;;;0.50
76541;BMP280;65385;55.772;37.658;2024-01-25T03:28:13;98359.63;;;0.48
76541;BMP280;65385;55.772;37.658;2024-01-25T03:29:15;98367.13;;;0.50
76541;BMP280;65385;55.772;37.658;2024-01-25T03:30:16;98368.72;;;0.51
76541;BMP280;65385;55.772;37.658;2024-01-25T03:31:16;98365.56;;;0.49
76541;BMP280;65385;55.772;37.658;2024-01-25T03:32:17;98365.56;;;0.49
76541;BMP280;65385;55.772;37.658;2024-01-25T03:33:17;98357.84;;;0.49
76541;BMP280;65385;55.772;37.658;2024-01-25T03:34:18;98356.28;;;0.48
76541;BMP280;65385;55.772;37.658;2024-01-25T03:35:19;98358.06;;;0.47
76541;BMP280;65385;55.772;37.658;2024-01-25T03:36:19;98366.56;;;0.48
76541;BMP280;65385;55.772;37.658;2024-01-25T03:37:20;98361.44;;;0.48
76541;BMP280;65385;55.772;37.658;2024-01-25T03:38:20;98358.84;;;0.48
76541;BMP280;65385;55.772;37.658;2024-01-25T03:39:21;98359.84;;;0.47
76541;BMP280;65385;55.772;37.658;2024-01-25T03:40:21;98372.72;;;0.47
76541;BMP280;65385;55.772;37.658;2024-01-25T03:41:23;98352.34;;;0.45
76541;BMP280;65385;55.772;37.658;2024-01-25T03:42:24;98376.75;;;0.43
76541;BMP280;65385;55.772;37.658;2024-01-25T03:43:25;98367.25;;;0.43
76541;BMP280;65385;55.772;37.658;2024-01-25T03:44:25;98352.59;;;0.44
76541;BMP280;65385;55.772;37.658;2024-01-25T03:45:26;98367.25;;;0.43
76541;BMP280;65385;55.772;37.658;2024-01-25T03:46:27;98364.09;;;0.41
76541;BMP280;65385;55.772;37.658;2024-01-25T03:47:27;98359.75;;;0.42
76541;BMP280;65385;55.772;37.658;2024-01-25T03:48:28;98356.59;;;0.39
76541;BMP280;65385;55.772;37.658;2024-01-25T03:49:29;98357.38;;;0.40
76541;BMP280;65385;55.772;37.658;2024-01-25T03:50:29;98358.38;;;0.39
76541;BMP280;65385;55.772;37.658;2024-01-25T03:51:30;98355.81;;;0.39
76541;BMP280;65385;55.772;37.658;2024-01-25T03:52:30;98351.47;;;0.39
76541;BMP280;65385;55.772;37.658;2024-01-25T03:53:31;98346.31;;;0.39
76541;BMP280;65385;55.772;37.658;2024-01-25T03:54:31;98349.09;;;0.38
76541;BMP280;65385;55.772;37.658;2024-01-25T03:55:32;98352.47;;;0.38
76541;BMP280;65385;55.772;37.658;2024-01-25T03:56:33;98349.09;;;0.38
76541;BMP280;65385;55.772;37.658;2024-01-25T03:57:33;98351.91;;;0.36
76541;BMP280;65385;55.772;37.658;2024-01-25T03:58:34;98344.22;;;0.36
76541;BMP280;65385;55.772;37.658;2024-01-25T03:59:34;98345.75;;;0.37
76541;BMP280;65385;55.772;37.658;2024-01-25T04:00:35;98344.41;;;0.35
76541;BMP280;65385;55.772;37.658;2024-01-25T04:01:41;98342.84;;;0.34
76541;BMP280;65385;55.772;37.658;2024-01-25T04:02:43;98338.94;;;0.31
76541;BMP280;65385;55.772;37.658;2024-01-25T04:03:43;98339.50;;;0.33
76541;BMP280;65385;55.772;37.658;2024-01-25T04:04:44;98340.50;;;0.32
76541;BMP280;65385;55.772;37.658;2024-01-25T04:05:44;98340.50;;;0.32
76541;BMP280;65385;55.772;37.658;2024-01-25T04:06:45;98332.56;;;0.34
76541;BMP280;65385;55.772;37.658;2024-01-25T04:07:48;98340.50;;;0.32
76541;BMP280;65385;55.772;37.658;2024-01-25T04:08:49;98326.09;;;0.31
76541;BMP280;65385;55.772;37.658;2024-01-25T04:09:50;98332.78;;;0.32
76541;BMP280;65385;55.772;37.658;2024-01-25T04:10:50;98333.56;;;0.33
76541;BMP280;65385;55.772;37.658;2024-01-25T04:11:51;98328.69;;;0.31
76541;BMP280;65385;55.772;37.658;2024-01-25T04:12:52;98340.50;;;0.32
76541;BMP280;65385;55.772;37.658;2024-01-25T04:13:52;98333.03;;;0.31
76541;BMP280;65385;55.772;37.658;2024-01-25T04:14:53;98325.06;;;0.32
76541;BMP280;65385;55.772;37.658;2024-01-25T04:15:54;98331.25;;;0.31
76541;BMP280;65385;55.772;37.658;2024-01-25T04:16:54;98338.94;;;0.31
76541;BMP280;65385;55.772;37.658;2024-01-25T04:17:55;98336.13;;;0.33
76541;BMP280;65385;55.772;37.658;2024-01-25T04:18:56;98332.34;;;0.35
76541;BMP280;65385;55.772;37.658;2024-01-25T04:19:57;98337.72;;;0.34
76541;BMP280;65385;55.772;37.658;2024-01-25T04:20:57;98339.50;;;0.33
76541;BMP280;65385;55.772;37.658;2024-01-25T04:21:58;98331.78;;;0.33
76541;BMP280;65385;55.772;37.658;2024-01-25T04:22:59;98332.03;;;0.32
76541;BMP280;65385;55.772;37.658;2024-01-25T04:23:59;98331.25;;;0.31
76541;BMP280;65385;55.772;37.658;2024-01-25T04:25:00;98339.72;;;0.32
76541;BMP280;65385;55.772;37.658;2024-01-25T04:26:00;98345.09;;;0.30
76541;BMP280;65385;55.772;37.658;2024-01-25T04:27:01;98335.81;;;0.29
76541;BMP280;65385;55.772;37.658;2024-01-25T04:28:02;98334.81;;;0.30
76541;BMP280;65385;55.772;37.658;2024-01-25T04:29:02;98326.31;;;0.30
76541;BMP280;65385;55.772;37.658;2024-01-25T04:30:03;98337.38;;;0.30
76541;BMP280;65385;55.772;37.658;2024-01-25T04:31:04;98331.47;;;0.30
76541;BMP280;65385;55.772;37.658;2024-01-25T04:32:05;98336.38;;;0.31
76541;BMP280;65385;55.772;37.658;2024-01-25T04:33:06;98328.69;;;0.31
76541;BMP280;65385;55.772;37.658;2024-01-25T04:34:07;98333.81;;;0.31
76541;BMP280;65385;55.772;37.658;2024-01-25T04:35:08;98338.94;;;0.31
76541;BMP280;65385;55.772;37.658;2024-01-25T04:36:09;98337.38;;;0.30
76541;BMP280;65385;55.772;37.658;2024-01-25T04:37:10;98340.50;;;0.32
76541;BMP280;65385;55.772;37.658;2024-01-25T04:38:10;98339.72;;;0.32
76541;BMP280;65385;55.772;37.658;2024-01-25T04:39:11;98342.84;;;0.34
76541;BMP280;65385;55.772;37.658;2024-01-25T04:40:12;98346.41;;;0.33
76541;BMP280;65385;55.772;37.658;2024-01-25T04:41:12;98342.31;;;0.32
76541;BMP280;65385;55.772;37.658;2024-01-25T04:42:13;98338.16;;;0.31
76541;BMP280;65385;55.772;37.658;2024-01-25T04:43:14;98351.34;;;0.34
76541;BMP280;65385;55.772;37.658;2024-01-25T04:44:14;98341.84;;;0.35
76541;BMP280;65385;55.772;37.658;2024-01-25T04:45:15;98335.34;;;0.32
76541;BMP280;65385;55.772;37.658;2024-01-25T04:46:16;98347.19;;;0.33
76541;BMP280;65385;55.772;37.658;2024-01-25T04:47:16;98346.66;;;0.31
76541;BMP280;65385;55.772;37.658;2024-01-25T04:48:17;98344.63;;;0.33
76541;BMP280;65385;55.772;37.658;2024-01-25T04:49:17;98348.00;;;0.34
76541;BMP280;65385;55.772;37.658;2024-01-25T04:50:18;98351.00;;;0.31
76541;BMP280;65385;55.772;37.658;2024-01-25T04:51:19;98347.19;;;0.33
76541;BMP280;65385;55.772;37.658;2024-01-25T04:52:22;98352.59;;;0.32
76541;BMP280;65385;55.772;37.658;2024-01-25T04:53:23;98349.22;;;0.31
76541;BMP280;65385;55.772;37.658;2024-01-25T04:54:24;98350.78;;;0.32
76541;BMP280;65385;55.772;37.658;2024-01-25T04:55:24;98355.16;;;0.32
76541;BMP280;65385;55.772;37.658;2024-01-25T04:56:25;98352.34;;;0.33
76541;BMP280;65385;55.772;37.658;2024-01-25T04:57:25;98350.56;;;0.34
76541;BMP280;65385;55.772;37.658;2024-01-25T04:58:26;98348.00;;;0.34
76541;BMP280;65385;55.772;37.658;2024-01-25T04:59:26;98345.63;;;0.32
76541;BMP280;65385;55.772;37.658;2024-01-25T05:00:27;98341.97;;;0.28
76541;BMP280;65385;55.772;37.658;2024-01-25T05:01:27;98345.34;;;0.29
76541;BMP280;65385;55.772;37.658;2024-01-25T05:02:28;98334.28;;;0.28
76541;BMP280;65385;55.772;37.658;2024-01-25T05:03:29;98340.41;;;0.27
76541;BMP280;65385;55.772;37.658;2024-01-25T05:04:31;98339.84;;;0.25
76541;BMP280;65385;55.772;37.658;2024-01-25T05:05:32;98335.13;;;0.22
76541;BMP280;65385;55.772;37.658;2024-01-25T05:06:32;98338.25;;;0.24
76541;BMP280;65385;55.772;37.658;2024-01-25T05:07:33;98336.69;;;0.23
76541;BMP280;65385;55.772;37.658;2024-01-25T05:08:33;98334.91;;;0.24
76541;BMP280;65385;55.772;37.658;2024-01-25T05:09:34;98335.69;;;0.24
76541;BMP280;65385;55.772;37.658;2024-01-25T05:10:35;98336.69;;;0.23
76541;BMP280;65385;55.772;37.658;2024-01-25T05:11:41;98331.56;;;0.23
76541;BMP280;65385;55.772;37.658;2024-01-25T05:12:41;98334.38;;;0.22
76541;BMP280;65385;55.772;37.658;2024-01-25T05:13:42;98334.56;;;0.20
76541;BMP280;65385;55.772;37.658;2024-01-25T05:14:42;98339.72;;;0.20
76541;BMP280;65385;55.772;37.658;2024-01-25T05:15:43;98341.28;;;0.21
76541;BMP280;65385;55.772;37.658;2024-01-25T05:16:44;98339.72;;;0.20
76541;BMP280;65385;55.772;37.658;2024-01-25T05:17:44;98344.84;;;0.20
76541;BMP280;65385;55.772;37.658;2024-01-25T05:18:45;98344.06;;;0.20
76541;BMP280;65385;55.772;37.658;2024-01-25T05:19:45;98339.16;;;0.18
76541;BMP280;65385;55.772;37.658;2024-01-25T05:20:46;98338.38;;;0.18
76541;BMP280;65385;55.772;37.658;2024-01-25T05:21:47;98342.72;;;0.17
76541;BMP280;65385;55.772;37.658;2024-01-25T05:22:47;98346.28;;;0.16
76541;BMP280;65385;55.772;37.658;2024-01-25T05:23:48;98351.41;;;0.16
76541;BMP280;65385;55.772;37.658;2024-01-25T05:24:48;98342.16;;;0.15
76541;BMP280;65385;55.772;37.658;2024-01-25T05:25:49;98342.16;;;0.15
76541;BMP280;65385;55.772;37.658;2024-01-25T05:26:50;98338.25;;;0.13
76541;BMP280;65385;55.772;37.658;2024-01-25T05:27:50;98335.69;;;0.13
76541;BMP280;65385;55.772;37.658;2024-01-25T05:28:51;98337.66;;;0.11
76541;BMP280;65385;55.772;37.658;2024-01-25T05:29:51;98343.59;;;0.11
76541;BMP280;65385;55.772;37.658;2024-01-25T05:30:52;98346.75;;;0.13
76541;BMP280;65385;55.772;37.658;2024-01-25T05:31:52;98341.59;;;0.13
76541;BMP280;65385;55.772;37.658;2024-01-25T05:32:53;98348.53;;;0.13
76541;BMP280;65385;55.772;37.658;2024-01-25T05:33:54;98332.31;;;0.12
76541;BMP280;65385;55.772;37.658;2024-01-25T05:34:55;98334.88;;;0.12
76541;BMP280;65385;55.772;37.658;2024-01-25T05:35:55;98332.31;;;0.12
76541;BMP280;65385;55.772;37.658;2024-01-25T05:36:56;98331.31;;;0.13
76541;BMP280;65385;55.772;37.658;2024-01-25T05:37:57;98333.91;;;0.13
76541;BMP280;65385;55.772;37.658;2024-01-25T05:38:57;98344.16;;;0.13
76541;BMP280;65385;55.772;37.658;2024-01-25T05:39:58;98343.38;;;0.13
76541;BMP280;65385;55.772;37.658;2024-01-25T05:40:59;98341.59;;;0.13
76541;BMP280;65385;55.772;37.658;2024-01-25T05:41:59;98335.69;;;0.13
76541;BMP280;65385;55.772;37.658;2024-01-25T05:43:00;98334.09;;;0.12
76541;BMP280;65385;55.772;37.658;2024-01-25T05:44:00;98338.47;;;0.11
76541;BMP280;65385;55.772;37.658;2024-01-25T05:45:04;98340.81;;;0.13
76541;BMP280;65385;55.772;37.658;2024-01-25T05:46:05;98337.47;;;0.12
76541;BMP280;65385;55.772;37.658;2024-01-25T05:47:06;98336.69;;;0.12
76541;BMP280;65385;55.772;37.658;2024-01-25T05:48:07;98340.81;;;0.13
76541;BMP280;65385;55.772;37.658;2024-01-25T05:49:08;98337.47;;;0.12
76541;BMP280;65385;55.772;37.658;2024-01-25T05:50:08;98342.59;;;0.12
76541;BMP280;65385;55.772;37.658;2024-01-25T05:51:09;98344.38;;;0.12